Time;durP1;ratioP1;P1;durP2;ratioP2;P2;SDS_P1;SDS_P2;PMS_P1;PMS_P2;Temp;Humidity;BMP_temperature;BMP_pressure;BME280_temperature;BME280_humidity;BME280_pressure;Samples;Min_cycle;Max_cycle;Signal;HPM_P1;HPM_P2
2021/03/17 00:00:29;;;;;;;17.10;10.88;;;;;;;-4.19;100.00;101346.22;2573421;55;20488;-69
2021/03/17 00:03:16;;;;;;;18.95;11.95;;;;;;;-4.17;100.00;101333.19;2568508;55;20622;-69
2021/03/17 00:06:03;;;;;;;22.25;13.98;;;;;;;-4.17;100.00;101342.72;2568286;55;20127;-69
2021/03/17 00:08:49;;;;;;;19.50;12.07;;;;;;;-4.12;100.00;101344.44;2573311;55;20124;-66
2021/03/17 00:11:34;;;;;;;22.20;12.32;;;;;;;-4.11;100.00;101341.00;2573346;55;20114;-68
2021/03/17 00:14:26;;;;;;;22.73;11.75;;;;;;;-4.07;100.00;101342.69;2568504;55;20132;-69
2021/03/17 00:17:12;;;;;;;20.23;11.73;;;;;;;-4.08;100.00;101338.37;2573342;55;20122;-66
2021/03/17 00:20:00;;;;;;;20.15;12.05;;;;;;;-4.05;100.00;101347.91;2573692;55;20115;-66
2021/03/17 00:22:47;;;;;;;19.62;11.60;;;;;;;-4.02;100.00;101339.19;2568393;55;20136;-69
2021/03/17 00:25:36;;;;;;;21.48;12.52;;;;;;;-4.01;100.00;101343.53;2573222;55;20135;-66
2021/03/17 00:28:22;;;;;;;18.80;11.30;;;;;;;-4.01;100.00;101341.81;2573621;55;20115;-66
2021/03/17 00:31:10;;;;;;;23.67;12.10;;;;;;;-4.02;100.00;101337.47;2573182;55;20117;-69
2021/03/17 00:33:56;;;;;;;19.02;11.12;;;;;;;-3.99;100.00;101341.81;2573556;55;20132;-66
2021/03/17 00:36:43;;;;;;;18.98;10.82;;;;;;;-3.99;100.00;101339.19;2572971;55;20112;-66
2021/03/17 00:39:29;;;;;;;21.90;12.15;;;;;;;-3.98;100.00;101333.13;2573264;55;20630;-66
2021/03/17 00:42:17;;;;;;;19.75;10.95;;;;;;;-3.99;100.00;101339.19;2568294;55;20141;-68
2021/03/17 00:45:04;;;;;;;23.52;12.48;;;;;;;-4.02;100.00;101337.47;2568298;55;20132;-68
2021/03/17 00:47:51;;;;;;;19.70;11.90;;;;;;;-4.00;100.00;101343.53;2568163;55;20113;-68
2021/03/17 00:50:23;;;;;;;19.53;11.40;;;;;;;-4.03;100.00;101340.06;2573534;55;20124;-66
2021/03/17 00:52:51;;;;;;;21.55;12.35;;;;;;;-4.00;100.00;101353.13;2573244;55;20128;-69
2021/03/17 00:55:20;;;;;;;18.77;11.77;;;;;;;-3.99;100.00;101349.63;2568160;55;20109;-66
2021/03/17 00:57:51;;;;;;;20.23;12.93;;;;;;;-4.02;100.00;101352.22;2568243;55;20132;-69
2021/03/17 01:00:21;;;;;;;20.35;11.30;;;;;;;-4.00;100.00;101350.50;2573422;55;20661;-66
2021/03/17 01:02:51;;;;;;;18.52;10.48;;;;;;;-3.99;100.00;101352.25;2573224;55;20127;-66
2021/03/17 01:05:28;;;;;;;17.62;11.20;;;;;;;-3.97;100.00;101347.88;2573053;55;20139;-69
2021/03/17 01:07:58;;;;;;;19.55;10.68;;;;;;;-3.98;100.00;101348.75;2573269;55;20118;-69
2021/03/17 01:10:32;;;;;;;19.33;11.23;;;;;;;-3.97;100.00;101350.47;2568037;55;20114;-69
2021/03/17 01:13:01;;;;;;;19.42;10.70;;;;;;;-3.99;100.00;101352.25;2573322;55;20139;-66
2021/03/17 01:15:31;;;;;;;19.87;12.30;;;;;;;-4.03;100.00;101355.72;2573358;55;20131;-66
2021/03/17 01:18:03;;;;;;;20.52;11.63;;;;;;;-4.04;100.00;101354.88;2568180;55;20110;-69
2021/03/17 01:20:34;;;;;;;21.87;11.68;;;;;;;-4.02;100.00;101357.44;2568311;55;20122;-66
2021/03/17 01:23:04;;;;;;;21.30;10.70;;;;;;;-4.07;100.00;101354.84;2573509;55;20140;-69
2021/03/17 01:25:34;;;;;;;20.35;12.15;;;;;;;-4.13;100.00;101337.50;2567998;55;20591;-69
2021/03/17 01:28:03;;;;;;;18.75;10.88;;;;;;;-4.13;100.00;101350.53;2568134;55;20148;-66
2021/03/17 01:30:34;;;;;;;;;;;;;;;-3.96;100.00;101347.00;2568492;55;20508;-66
2021/03/17 01:33:06;;;;;;;19.85;10.20;;;;;;;-4.14;100.00;101351.41;2568069;55;20007;-69
2021/03/17 01:35:34;;;;;;;19.60;11.02;;;;;;;-4.21;100.00;101357.50;2573149;55;20285;-66
2021/03/17 01:38:05;;;;;;;17.05;11.15;;;;;;;-4.29;100.00;101354.94;2573096;55;20170;-66
2021/03/17 01:40:37;;;;;;;17.55;10.50;;;;;;;-4.31;100.00;101351.47;2573045;55;20634;-68
2021/03/17 01:43:04;;;;;;;19.52;10.23;;;;;;;-4.33;100.00;101359.28;2573414;55;20135;-69
2021/03/17 01:45:34;;;;;;;17.60;10.70;;;;;;;-4.37;100.00;101357.56;2567954;55;20128;-66
2021/03/17 01:48:04;;;;;;;17.08;10.75;;;;;;;-4.35;100.00;101350.62;2567636;55;20114;-67
2021/03/17 01:50:35;;;;;;;19.42;11.63;;;;;;;-4.36;100.00;101350.59;2573037;55;20149;-69
2021/03/17 01:53:09;;;;;;;17.02;10.77;;;;;;;-4.35;100.00;101348.00;2568150;55;20148;-68
2021/03/17 01:55:39;;;;;;;19.23;10.37;;;;;;;-4.36;100.00;101354.09;2572975;55;20164;-69
2021/03/17 01:58:09;;;;;;;18.77;10.57;;;;;;;-4.34;100.00;101346.28;2573128;55;20221;-66
2021/03/17 02:00:40;;;;;;;19.00;10.85;;;;;;;-4.27;100.00;101353.19;2567975;55;20620;-69
2021/03/17 02:03:09;;;;;;;21.37;11.82;;;;;;;-4.22;100.00;101354.06;2572975;55;20113;-66
2021/03/17 02:05:44;;;;;;;20.12;10.88;;;;;;;-4.16;100.00;101342.75;2567966;55;20808;-69
2021/03/17 02:08:17;;;;;;;20.67;11.48;;;;;;;-4.11;100.00;101351.41;2573109;55;20110;-69
2021/03/17 02:10:48;;;;;;;19.98;11.70;;;;;;;-4.09;100.00;101346.19;2568261;55;20163;-69
2021/03/17 02:13:32;;;;;;;21.70;12.50;;;;;;;-3.98;100.00;101348.75;2567936;55;20116;-67
2021/03/17 02:16:05;;;;;;;23.33;13.75;;;;;;;-3.90;100.00;101357.41;2572832;55;20161;-66
2021/03/17 02:18:47;;;;;;;23.20;13.10;;;;;;;-3.88;100.00;101354.78;2573108;55;20122;-67
2021/03/17 02:21:42;;;;;;;24.15;13.13;;;;;;;-3.85;100.00;101344.34;2572784;55;20629;-67
2021/03/17 02:24:17;;;;;;;27.08;13.75;;;;;;;-3.83;100.00;101355.63;2573092;55;20652;-69
2021/03/17 02:27:15;;;;;;;29.23;14.80;;;;;;;-3.72;100.00;101356.44;2572675;55;20122;-69
2021/03/17 02:30:12;;;;;;;29.33;15.85;;;;;;;-3.67;100.00;101361.63;2572995;55;20118;-69
2021/03/17 02:32:55;;;;;;;29.77;16.42;;;;;;;-3.63;100.00;101350.28;2562445;55;20645;-66
2021/03/17 02:35:29;;;;;;;36.10;16.23;;;;;;;-3.59;100.00;101357.25;2568037;55;20102;-66
2021/03/17 02:38:02;;;;;;;29.40;16.35;;;;;;;-3.54;100.00;101359.84;2573005;55;20153;-69
2021/03/17 02:40:33;;;;;;;36.92;16.70;;;;;;;-3.51;100.00;101359.81;2567675;55;20116;-66
2021/03/17 02:43:08;;;;;;;30.25;16.00;;;;;;;-3.49;100.00;101358.03;2572876;55;20497;-66
2021/03/17 02:45:41;;;;;;;34.22;16.95;;;;;;;-3.50;100.00;101357.19;2567781;55;20139;-69
2021/03/17 02:48:16;;;;;;;37.42;16.70;;;;;;;-3.44;100.00;101360.62;2567811;55;20114;-67
2021/03/17 02:50:49;;;;;;;37.30;18.10;;;;;;;-3.41;100.00;101356.25;2567718;55;20159;-69
2021/03/17 02:53:24;;;;;;;44.42;19.60;;;;;;;-3.29;100.00;101357.94;2573011;55;20114;-69
2021/03/17 02:56:00;;;;;;;41.15;19.05;;;;;;;-3.22;100.00;101356.97;2572752;55;20099;-69
2021/03/17 02:58:33;;;;;;;43.92;19.77;;;;;;;-3.19;100.00;101350.88;2567859;55;20125;-66
2021/03/17 03:01:04;;;;;;;45.00;23.10;;;;;;;-3.13;100.00;101352.56;2573337;55;20528;-66
2021/03/17 03:03:35;;;;;;;48.85;21.17;;;;;;;-3.00;100.00;101361.19;2569007;55;20106;-66
2021/03/17 03:06:11;;;;;;;51.47;22.98;;;;;;;-3.00;100.00;101341.16;2568422;55;20149;-67
2021/03/17 03:08:43;;;;;;;55.72;22.00;;;;;;;-3.02;100.00;101358.56;2573546;55;20520;-67
2021/03/17 03:11:13;;;;;;;48.40;22.02;;;;;;;-2.99;100.00;101352.47;2573557;55;20122;-67
2021/03/17 03:13:44;;;;;;;58.45;22.27;;;;;;;-2.97;100.00;101366.38;2568616;55;20117;-67
2021/03/17 03:16:15;;;;;;;54.22;24.63;;;;;;;-2.97;100.00;101366.38;2573770;55;20110;-67
2021/03/17 03:18:49;;;;;;;57.58;23.98;;;;;;;-2.94;100.00;101354.16;2568896;55;20626;-69
2021/03/17 03:21:19;;;;;;;;;;;;;;;-2.79;100.00;101357.53;2573811;55;20132;-67
2021/03/17 03:23:54;;;;;;;56.65;23.40;;;;;;;-2.87;100.00;101354.09;2573590;55;20005;-67
2021/03/17 03:26:23;;;;;;;60.75;23.58;;;;;;;-2.85;100.00;101352.34;2573603;55;20642;-66
2021/03/17 03:28:56;;;;;;;56.75;25.23;;;;;;;-2.81;100.00;101356.66;2573621;55;20544;-67
2021/03/17 03:31:25;;;;;;;55.65;24.58;;;;;;;-2.78;100.00;101354.03;2568637;55;20496;-67
2021/03/17 03:33:53;;;;;;;59.53;23.62;;;;;;;-2.80;100.00;101348.81;2568570;55;20113;-67
2021/03/17 03:36:24;;;;;;;62.05;25.12;;;;;;;-2.76;100.00;101354.00;2568496;55;20156;-69
2021/03/17 03:38:51;;;;;;;66.10;25.48;;;;;;;-2.76;100.00;101356.59;2573538;55;20136;-69
2021/03/17 03:41:21;;;;;;;61.58;24.77;;;;;;;-2.75;100.00;101355.75;2568479;55;20126;-70
2021/03/17 03:43:49;;;;;;;59.10;24.58;;;;;;;-2.73;100.00;101354.84;2573583;55;20121;-66
2021/03/17 03:46:17;;;;;;;58.78;25.40;;;;;;;-2.72;100.00;101356.56;2568225;55;20116;-66
2021/03/17 03:48:48;;;;;;;53.42;24.33;;;;;;;-2.71;100.00;101353.06;2568474;55;20505;-66
2021/03/17 03:51:19;;;;;;;57.00;25.25;;;;;;;-2.67;100.00;101356.50;2568362;55;20486;-69
2021/03/17 03:54:06;;;;;;;54.33;24.33;;;;;;;-2.64;100.00;101353.03;2568372;55;20128;-69
2021/03/17 03:56:39;;;;;;;57.42;25.20;;;;;;;-2.61;100.00;101364.31;2573520;55;20131;-67
2021/03/17 03:59:12;;;;;;;60.05;23.23;;;;;;;-2.60;100.00;101357.34;2568375;55;20500;-67
2021/03/17 04:01:45;;;;;;;49.95;22.25;;;;;;;-2.61;100.00;101352.97;2573496;55;20136;-67
2021/03/17 04:04:17;;;;;;;55.20;24.75;;;;;;;-2.59;100.00;101357.31;2568422;55;20128;-69
2021/03/17 04:06:51;;;;;;;53.25;21.95;;;;;;;-2.62;100.00;101352.13;2573496;55;20621;-69
2021/03/17 04:09:26;;;;;;;54.78;23.65;;;;;;;-2.58;100.00;101360.81;2568440;55;20109;-68
2021/03/17 04:12:00;;;;;;;54.80;23.77;;;;;;;-2.60;100.00;101347.75;2568255;55;20136;-68
2021/03/17 04:14:36;;;;;;;49.80;21.65;;;;;;;-2.60;100.00;101355.59;2568272;55;20136;-68
2021/03/17 04:17:11;;;;;;;58.97;24.20;;;;;;;-2.54;100.00;101359.88;2568591;55;20110;-66
2021/03/17 04:19:44;;;;;;;58.58;24.48;;;;;;;-2.56;100.00;101356.44;2573603;55;20125;-69
2021/03/17 04:22:13;;;;;;;58.13;25.55;;;;;;;-2.55;100.00;101358.16;2573375;55;20131;-69
2021/03/17 04:24:43;;;;;;;59.50;24.75;;;;;;;-2.54;100.00;101359.88;2573303;55;20121;-66
2021/03/17 04:27:14;;;;;;;60.22;23.95;;;;;;;-2.61;100.00;101347.75;2568190;55;20126;-69
2021/03/17 04:29:45;;;;;;;54.70;22.83;;;;;;;-2.55;100.00;101347.69;2568287;55;20620;-66
2021/03/17 04:32:16;;;;;;;53.67;24.40;;;;;;;-2.55;100.00;101342.47;2573327;55;20127;-66
2021/03/17 04:34:50;;;;;;;56.22;22.37;;;;;;;-2.57;100.00;101333.78;2573463;55;20568;-66
2021/03/17 04:37:21;;;;;;;51.17;22.40;;;;;;;-2.52;100.00;101352.88;2568101;55;20122;-66
2021/03/17 04:39:55;;;;;;;52.62;23.73;;;;;;;-2.47;100.00;101342.37;2573387;55;20113;-69
2021/03/17 04:42:26;;;;;;;52.85;23.70;;;;;;;-2.47;100.00;101347.62;2573312;55;20101;-69
2021/03/17 04:44:59;;;;;;;67.25;27.62;;;;;;;-2.45;100.00;101349.34;2573525;55;20124;-68
2021/03/17 04:47:28;;;;;;;59.95;26.17;;;;;;;-2.46;100.00;101358.06;2567844;55;20121;-66
2021/03/17 04:49:59;;;;;;;60.70;26.55;;;;;;;-2.42;100.00;101353.66;2568311;55;20127;-66
2021/03/17 04:52:31;;;;;;;58.08;24.98;;;;;;;-2.42;100.00;101364.12;2573213;55;20102;-69
2021/03/17 04:55:03;;;;;;;52.80;25.15;;;;;;;-2.42;100.00;101362.34;2573338;55;20620;-69
2021/03/17 04:57:35;;;;;;;58.75;23.62;;;;;;;-2.42;100.00;101364.97;2568333;55;20133;-69
2021/03/17 05:00:07;;;;;;;61.08;25.17;;;;;;;-2.41;100.00;101366.69;2568164;55;20505;-66
2021/03/17 05:02:40;;;;;;;59.38;25.67;;;;;;;-2.38;100.00;101361.47;2573298;55;20131;-66
2021/03/17 05:05:11;;;;;;;58.63;24.95;;;;;;;-2.32;100.00;101367.50;2573309;55;20129;-68
2021/03/17 05:07:43;;;;;;;54.95;23.62;;;;;;;-2.34;100.00;101374.50;2573371;55;20136;-69
2021/03/17 05:10:14;;;;;;;61.47;24.08;;;;;;;-2.30;100.00;101389.28;2568123;55;20638;-68
2021/03/17 05:12:44;;;;;;;57.42;24.05;;;;;;;-2.32;100.00;101380.56;2573241;55;20132;-68
2021/03/17 05:15:14;;;;;;;53.25;23.77;;;;;;;-2.31;100.00;101377.06;2573492;55;20211;-66
2021/03/17 05:17:47;;;;;;;55.00;25.35;;;;;;;-2.32;100.00;101376.22;2573180;55;20541;-66
2021/03/17 05:20:19;;;;;;;62.50;24.20;;;;;;;-2.31;100.00;101372.72;2573410;55;20105;-66
2021/03/17 05:22:49;;;;;;;53.53;23.08;;;;;;;-2.24;100.00;101383.97;2572935;55;20109;-66
2021/03/17 05:25:23;;;;;;;56.83;23.77;;;;;;;-2.26;100.00;101380.50;2573176;55;20118;-69
2021/03/17 05:27:53;;;;;;;62.22;26.33;;;;;;;-2.24;100.00;101373.50;2573231;55;20535;-69
2021/03/17 05:30:25;;;;;;;46.67;22.45;;;;;;;-2.20;100.00;101380.44;2573126;55;20146;-66
2021/03/17 05:32:56;;;;;;;50.33;21.35;;;;;;;-2.17;100.00;101384.75;2568240;55;20131;-69
2021/03/17 05:35:25;;;;;;;57.80;23.80;;;;;;;-2.18;100.00;101383.91;2567901;55;20106;-66
2021/03/17 05:37:56;;;;;;;47.33;22.87;;;;;;;-2.16;100.00;101382.13;2574466;55;20160;-69
2021/03/17 05:40:28;;;;;;;54.85;22.70;;;;;;;-2.12;100.00;101378.59;2575182;55;20105;-69
2021/03/17 05:43:03;;;;;;;55.35;23.83;;;;;;;-2.17;100.00;101380.41;2575220;55;20168;-66
2021/03/17 05:45:34;;;;;;;64.40;27.20;;;;;;;-2.17;100.00;101385.63;2575195;55;20116;-69
2021/03/17 05:48:04;;;;;;;61.63;26.33;;;;;;;-2.16;100.00;101384.75;2574155;55;20633;-66
2021/03/17 05:50:39;;;;;;;53.20;22.92;;;;;;;-2.15;100.00;101383.88;2568301;55;20160;-66
2021/03/17 05:53:09;;;;;;;55.42;23.42;;;;;;;-2.13;100.00;101382.09;2575205;55;20125;-69
2021/03/17 05:55:39;;;;;;;62.80;26.80;;;;;;;-2.11;100.00;101380.31;2574898;55;20141;-69
2021/03/17 05:58:10;;;;;;;52.67;22.27;;;;;;;-2.06;100.00;101389.87;2575414;55;20143;-66
2021/03/17 06:00:39;;;;;;;48.60;21.35;;;;;;;-2.03;100.00;101387.22;2568116;55;20122;-68
2021/03/17 06:03:10;;;;;;;51.15;21.30;;;;;;;-2.00;100.00;101395.03;2574993;55;20139;-71
2021/03/17 06:05:38;;;;;;;53.60;22.62;;;;;;;-2.00;100.00;101393.28;2574769;55;20130;-67
2021/03/17 06:08:07;;;;;;;53.25;21.40;;;;;;;-1.98;100.00;101393.28;2575650;55;20118;-67
2021/03/17 06:10:37;;;;;;;47.55;21.25;;;;;;;-1.92;100.00;101400.19;2567601;55;20116;-66
2021/03/17 06:13:12;;;;;;;50.12;21.52;;;;;;;-1.92;100.00;101401.03;2574622;55;20121;-68
2021/03/17 06:15:47;;;;;;;59.72;25.80;;;;;;;-1.91;100.00;101400.13;2574958;55;20140;-69
2021/03/17 06:18:21;;;;;;;59.78;23.20;;;;;;;-1.91;100.00;101402.75;2573739;55;20113;-66
2021/03/17 06:20:53;;;;;;;53.10;22.15;;;;;;;-1.92;100.00;101397.56;2572866;55;20121;-67
2021/03/17 06:23:21;;;;;;;54.05;21.62;;;;;;;-1.89;100.00;101398.38;2574187;55;20106;-68
2021/03/17 06:25:51;;;;;;;55.42;23.45;;;;;;;-1.85;100.00;101397.47;2572959;55;20138;-69
2021/03/17 06:28:24;;;;;;;55.45;22.65;;;;;;;-1.85;100.00;101400.06;2567586;55;20113;-67
2021/03/17 06:30:59;;;;;;;53.78;22.00;;;;;;;-1.82;100.00;101392.19;2574618;55;20114;-69
2021/03/17 06:33:27;;;;;;;56.33;22.45;;;;;;;-1.83;100.00;101400.91;2574059;55;20128;-69
2021/03/17 06:36:12;;;;;;;59.75;25.27;;;;;;;-1.75;100.00;101399.97;2568368;55;20562;-67
2021/03/17 06:38:42;;;;;;;61.35;23.15;;;;;;;-1.83;100.00;101392.22;2572352;55;20134;-68
2021/03/17 06:41:11;;;;;;;58.10;23.70;;;;;;;-1.83;100.00;101400.91;2568388;55;20141;-69
2021/03/17 06:43:46;;;;;;;55.22;25.05;;;;;;;-1.73;100.00;101400.81;2568766;55;20136;-67
2021/03/17 06:46:16;;;;;;;63.38;24.87;;;;;;;-1.78;100.00;101402.63;2573668;55;20114;-69
2021/03/17 06:48:43;;;;;;;67.32;24.77;;;;;;;-1.78;100.00;101406.09;2568777;55;20118;-68
2021/03/17 06:51:12;;;;;;;57.25;22.90;;;;;;;-1.74;100.00;101406.91;2568630;55;20126;-67
2021/03/17 06:53:45;;;;;;;57.67;24.98;;;;;;;-1.68;100.00;101404.25;2568665;55;20519;-67
2021/03/17 06:56:15;;;;;;;53.72;22.30;;;;;;;-1.71;100.00;101401.62;2568592;55;20118;-68
2021/03/17 06:58:47;;;;;;;56.13;22.45;;;;;;;-1.65;100.00;101409.41;2573672;55;20125;-67
2021/03/17 07:01:30;;;;;;;56.15;24.08;;;;;;;-1.63;100.00;101410.25;2573846;55;20218;-67
2021/03/17 07:04:08;;;;;;;53.90;21.87;;;;;;;-1.62;100.00;101419.84;2573911;55;20105;-69
2021/03/17 07:06:39;;;;;;;58.90;23.67;;;;;;;-1.59;100.00;101411.09;2573653;55;20489;-67
2021/03/17 07:09:20;;;;;;;61.60;24.55;;;;;;;-1.59;100.00;101406.72;2568699;55;20122;-67
2021/03/17 07:12:04;;;;;;;65.53;24.73;;;;;;;-1.57;100.00;101407.56;2568514;55;20109;-67
2021/03/17 07:14:39;;;;;;;59.70;23.30;;;;;;;-1.54;100.00;101412.75;2568540;55;20121;-67
2021/03/17 07:17:23;;;;;;;58.47;23.92;;;;;;;-1.52;100.00;101417.09;2573771;55;20124;-68
2021/03/17 07:19:50;;;;;;;58.53;25.52;;;;;;;-1.61;100.00;101411.09;2573825;55;20131;-69
2021/03/17 07:22:20;;;;;;;56.72;23.38;;;;;;;-1.62;100.00;101417.22;2568598;55;20118;-69
2021/03/17 07:24:54;;;;;;;58.87;22.77;;;;;;;-1.62;100.00;101409.38;2573641;55;20707;-68
2021/03/17 07:27:29;;;;;;;60.12;26.08;;;;;;;-1.54;100.00;101417.16;2573743;55;20494;-69
2021/03/17 07:30:12;;;;;;;64.27;24.57;;;;;;;-1.43;100.00;101416.97;2573716;55;20125;-67
2021/03/17 07:32:57;;;;;;;55.15;23.55;;;;;;;-1.37;100.00;101414.28;2573707;55;20122;-67
2021/03/17 07:35:30;;;;;;;55.58;22.62;;;;;;;-1.40;100.00;101411.72;2568550;55;20144;-67
2021/03/17 07:38:08;;;;;;;55.67;23.58;;;;;;;-1.39;100.00;101416.06;2573786;55;20127;-69
2021/03/17 07:40:46;;;;;;;63.20;24.77;;;;;;;-1.40;100.00;101409.09;2573678;55;20101;-69
2021/03/17 07:43:17;;;;;;;52.55;21.25;;;;;;;-1.32;100.00;101415.06;2568811;55;20128;-69
2021/03/17 07:45:48;;;;;;;44.78;20.25;;;;;;;-1.30;100.00;101418.56;2573437;55;20624;-67
2021/03/17 07:48:17;;;;;;;47.62;20.58;;;;;;;-1.23;100.00;101426.31;2568604;55;20505;-68
2021/03/17 07:50:46;;;;;;;52.25;23.77;;;;;;;-1.21;100.00;101414.03;2568597;55;20113;-67
2021/03/17 07:53:21;;;;;;;55.65;23.27;;;;;;;-1.20;100.00;101416.66;2573787;55;20157;-67
2021/03/17 07:55:54;;;;;;;55.30;23.90;;;;;;;-1.25;100.00;101423.72;2573625;55;20128;-69
2021/03/17 07:58:28;;;;;;;55.33;24.70;;;;;;;-1.23;100.00;101415.84;2573720;55;20139;-69
2021/03/17 08:00:58;;;;;;;57.75;23.83;;;;;;;-1.12;100.00;101419.16;2573534;55;20490;-67
2021/03/17 08:03:30;;;;;;;51.53;23.60;;;;;;;-1.07;100.00;101421.69;2573707;55;20128;-69
2021/03/17 08:06:02;;;;;;;52.80;21.83;;;;;;;-1.04;100.00;101417.28;2573648;55;20249;-67
2021/03/17 08:08:30;;;;;;;54.28;23.80;;;;;;;-1.01;100.00;101422.47;2573344;55;20520;-69
2021/03/17 08:10:58;;;;;;;54.35;23.33;;;;;;;-0.99;100.00;101419.84;2573410;55;20125;-68
2021/03/17 08:13:27;;;;;;;55.42;23.10;;;;;;;-0.99;100.00;101420.72;2573535;55;20113;-68
2021/03/17 08:15:57;;;;;;;57.78;24.37;;;;;;;-0.98;100.00;101419.81;2573478;55;20113;-67
2021/03/17 08:18:46;;;;;;;57.75;23.58;;;;;;;-0.86;100.00;101426.59;2573509;55;20203;-67
2021/03/17 08:21:15;;;;;;;56.63;25.02;;;;;;;-0.98;100.00;101429.41;2573541;55;20159;-68
2021/03/17 08:23:45;;;;;;;56.72;24.10;;;;;;;-1.00;100.00;101425.97;2573347;55;20114;-69
2021/03/17 08:26:34;;;;;;;58.83;25.12;;;;;;;-0.96;100.00;101427.63;2568526;55;20113;-68
2021/03/17 08:29:03;;;;;;;59.05;25.42;;;;;;;-0.94;100.00;101428.50;2568277;55;20500;-68
2021/03/17 08:31:54;;;;;;;56.92;23.80;;;;;;;-0.79;100.00;101437.88;2573304;55;20490;-68
2021/03/17 08:34:30;;;;;;;58.38;24.37;;;;;;;-0.86;100.00;101425.75;2573563;55;20106;-69
2021/03/17 08:37:00;;;;;;;59.75;26.02;;;;;;;-0.82;100.00;101439.69;2573437;55;20102;-68
2021/03/17 08:39:47;;;;;;;59.45;24.63;;;;;;;-0.87;100.00;101408.31;2568425;55;20125;-67
2021/03/17 08:42:30;;;;;;;65.53;26.75;;;;;;;-0.70;100.00;101431.59;2568304;55;20105;-67
2021/03/17 08:45:02;;;;;;;56.53;25.98;;;;;;;-0.71;100.00;101435.12;2573509;55;20113;-69
2021/03/17 08:47:42;;;;;;;55.45;25.05;;;;;;;-0.71;100.00;101435.97;2573268;55;20118;-69
2021/03/17 08:50:19;;;;;;;59.10;26.35;;;;;;;-0.60;100.00;101443.66;2568291;55;20634;-67
2021/03/17 08:52:54;;;;;;;55.60;26.83;;;;;;;-0.61;100.00;101441.06;2568557;55;20121;-69
2021/03/17 08:55:35;;;;;;;51.05;23.15;;;;;;;-0.58;100.00;101438.41;2568395;55;20120;-67
2021/03/17 08:58:06;;;;;;;55.63;24.30;;;;;;;-0.60;100.00;101448.91;2573155;55;20117;-68
2021/03/17 09:00:58;;;;;;;45.92;21.17;;;;;;;-0.58;100.00;101448.91;2573311;55;20604;-69
2021/03/17 09:03:44;;;;;;;;;;;;;;;-0.46;100.00;101440.81;2573876;55;20504;-67
2021/03/17 09:06:27;;;;;;;44.70;20.77;;;;;;;-0.62;100.00;101447.19;2568402;55;20007;-67
2021/03/17 09:09:04;;;;;;;40.55;19.37;;;;;;;-0.58;100.00;101438.41;2573192;55;20623;-69
2021/03/17 09:11:58;;;;;;;48.50;23.17;;;;;;;-0.57;100.00;101438.34;2568299;55;20136;-67
2021/03/17 09:14:31;;;;;;;42.15;20.55;;;;;;;-0.62;100.00;101437.59;2568269;55;20117;-67
2021/03/17 09:17:23;;;;;;;44.83;21.62;;;;;;;-0.58;100.00;101446.28;2573359;55;20137;-67
2021/03/17 09:20:23;;;;;;;38.72;18.90;;;;;;;-0.57;100.00;101451.47;2573445;55;20139;-67
2021/03/17 09:23:16;;;;;;;33.85;18.25;;;;;;;-0.55;100.00;101446.22;2566991;55;20113;-69
2021/03/17 09:25:46;;;;;;;37.30;18.85;;;;;;;-0.51;100.00;101452.28;2573268;55;20118;-68
2021/03/17 09:28:21;;;;;;;41.47;20.95;;;;;;;-0.44;100.00;101454.75;2573295;55;20126;-69
2021/03/17 09:30:52;;;;;;;35.80;20.15;;;;;;;-0.46;100.00;101451.31;2573277;55;20113;-69
2021/03/17 09:33:23;;;;;;;42.95;21.45;;;;;;;-0.46;100.00;101453.91;2568264;55;20169;-68
2021/03/17 09:35:57;;;;;;;45.75;22.83;;;;;;;-0.46;100.00;101440.81;2573221;55;20118;-68
2021/03/17 09:38:30;;;;;;;57.25;27.08;;;;;;;-0.43;100.00;101445.16;2573333;55;20129;-67
2021/03/17 09:41:09;;;;;;;41.15;21.17;;;;;;;-0.45;100.00;101442.53;2573289;55;20132;-68
2021/03/17 09:43:43;;;;;;;55.58;28.05;;;;;;;-0.44;100.00;101438.19;2568458;55;20122;-67
2021/03/17 09:46:34;;;;;;;39.05;20.12;;;;;;;-0.42;100.00;101439.84;2573186;55;20106;-69
2021/03/17 09:49:05;;;;;;;36.38;19.30;;;;;;;-0.46;100.00;101435.56;2571620;55;20102;-68
2021/03/17 09:51:41;;;;;;;34.78;18.75;;;;;;;-0.42;100.00;101437.22;2568153;55;20110;-67
2021/03/17 09:54:14;;;;;;;35.28;17.05;;;;;;;-0.39;100.00;101430.22;2573252;55;20607;-67
2021/03/17 09:56:47;;;;;;;31.67;17.35;;;;;;;-0.45;100.00;101423.31;2568118;55;20607;-67
2021/03/17 09:59:21;;;;;;;34.25;19.20;;;;;;;-0.44;100.00;101431.16;2568251;55;20404;-67
2021/03/17 10:01:55;;;;;;;30.27;16.52;;;;;;;-0.40;100.00;101438.97;2568077;55;20106;-67
2021/03/17 10:04:26;;;;;;;29.48;16.87;;;;;;;-0.40;100.00;101445.09;2568160;55;20110;-68
2021/03/17 10:06:56;;;;;;;30.48;18.10;;;;;;;-0.40;100.00;101437.22;2567994;55;20124;-69
2021/03/17 10:09:28;;;;;;;32.45;17.40;;;;;;;-0.38;100.00;101443.28;2573151;55;20123;-67
2021/03/17 10:12:05;;;;;;;31.42;16.80;;;;;;;-0.35;100.00;101448.50;2573832;55;20683;-69
2021/03/17 10:14:34;;;;;;;31.83;17.17;;;;;;;-0.44;100.00;101451.28;2573835;55;20544;-68
2021/03/17 10:17:05;;;;;;;33.63;17.92;;;;;;;-0.47;100.00;101446.94;2568714;55;20508;-67
2021/03/17 10:19:37;;;;;;;30.67;16.87;;;;;;;-0.45;100.00;101452.16;2574159;55;20097;-67
2021/03/17 10:22:06;;;;;;;31.30;16.73;;;;;;;-0.47;100.00;101449.56;2573813;55;20168;-68
2021/03/17 10:24:42;;;;;;;33.08;18.25;;;;;;;-0.46;100.00;101451.31;2568723;55;20606;-68
2021/03/17 10:27:15;;;;;;;29.23;15.98;;;;;;;-0.49;100.00;101451.38;2574020;55;20619;-68
2021/03/17 10:29:46;;;;;;;30.33;15.60;;;;;;;-0.46;100.00;101453.03;2573889;55;20132;-68
2021/03/17 10:32:16;;;;;;;30.92;15.32;;;;;;;-0.37;100.00;101459.91;2573916;55;20117;-67
2021/03/17 10:34:45;;;;;;;33.08;17.10;;;;;;;-0.34;100.00;101444.09;2568937;55;20488;-69
2021/03/17 10:37:19;;;;;;;30.60;16.20;;;;;;;-0.31;100.00;101449.28;2568956;55;20116;-68
2021/03/17 10:39:51;;;;;;;29.95;15.40;;;;;;;-0.34;100.00;101438.84;2574161;55;20125;-69
2021/03/17 10:42:20;;;;;;;27.17;15.38;;;;;;;-0.28;100.00;101454.50;2568727;55;20114;-67
2021/03/17 10:45:06;;;;;;;26.52;14.57;;;;;;;-0.16;100.00;101443.78;2573844;55;20116;-67
2021/03/17 10:47:35;;;;;;;32.78;17.15;;;;;;;-0.21;100.00;101440.34;2573615;55;20106;-68
2021/03/17 10:50:05;;;;;;;28.67;14.98;;;;;;;-0.21;100.00;101445.59;2573735;55;20677;-68
2021/03/17 10:52:37;;;;;;;22.37;12.52;;;;;;;-0.21;100.00;101444.75;2573853;55;20166;-67
2021/03/17 10:55:19;;;;;;;23.87;13.23;;;;;;;-0.21;100.00;101436.87;2568826;55;20614;-68
2021/03/17 10:57:50;;;;;;;22.48;12.07;;;;;;;-0.36;100.00;101446.75;2568775;55;20620;-68
2021/03/17 11:00:25;;;;;;;22.70;12.40;;;;;;;-0.40;100.00;101439.84;2573797;55;20119;-68
2021/03/17 11:02:56;;;;;;;16.27;9.93;;;;;;;-0.41;100.00;101448.59;2568607;55;20113;-67
2021/03/17 11:05:29;;;;;;;18.48;10.63;;;;;;;-0.36;100.00;101445.91;2568710;55;20121;-67
2021/03/17 11:08:06;;;;;;;16.95;9.52;;;;;;;-0.32;100.00;101431.81;2573799;55;20106;-67
2021/03/17 11:11:01;;;;;;;19.08;9.75;;;;;;;-0.23;100.00;101431.66;2573762;55;20109;-68
2021/03/17 11:13:35;;;;;;;13.40;9.07;;;;;;;-0.26;100.00;101431.72;2568660;55;20113;-69
2021/03/17 11:16:13;;;;;;;15.95;9.30;;;;;;;-0.32;100.00;101434.44;2568612;55;20132;-67
2021/03/17 11:18:51;;;;;;;15.55;9.93;;;;;;;-0.34;100.00;101433.63;2573843;55;20626;-67
2021/03/17 11:21:28;;;;;;;14.70;8.18;;;;;;;-0.37;100.00;101433.69;2573577;55;20117;-68
2021/03/17 11:24:03;;;;;;;12.15;7.87;;;;;;;-0.60;100.00;101401.72;2568814;55;20130;-68
2021/03/17 11:26:37;;;;;;;14.40;8.90;;;;;;;-0.37;100.00;101433.69;2568658;55;20118;-67
2021/03/17 11:29:16;;;;;;;16.12;9.57;;;;;;;-0.27;100.00;101422.12;2568633;55;20114;-67
2021/03/17 11:31:53;;;;;;;11.95;7.40;;;;;;;-0.23;100.00;101423.78;2568572;55;20201;-67
2021/03/17 11:34:22;;;;;;;11.88;7.25;;;;;;;-0.25;100.00;101425.59;2573746;55;20098;-67